createdAt,value
2022-10-23T00:07:21.993Z,97057.98
2022-10-23T00:17:25.809Z,97060.27
2022-10-23T00:27:29.674Z,97065.99
2022-10-23T00:37:33.435Z,97087.27
2022-10-23T00:47:37.420Z,97096.39
2022-10-23T00:57:44.036Z,97105.03
2022-10-23T01:08:06.027Z,97106.42
2022-10-23T01:18:27.500Z,97112.54
2022-10-23T01:28:43.047Z,97113.48
2022-10-23T01:38:59.609Z,97113.41
2022-10-23T01:49:09.143Z,97132.40
2022-10-23T01:59:19.620Z,97142.70
2022-10-23T02:09:24.198Z,97135.88
2022-10-23T02:19:27.779Z,97138.67
2022-10-23T02:29:44.441Z,97149.13
2022-10-23T02:39:49.627Z,97150.74
2022-10-23T02:50:01.478Z,97158.44
2022-10-23T03:00:17.323Z,97161.36
2022-10-23T03:10:21.626Z,97160.66
2022-10-23T03:20:25.469Z,97177.23
2022-10-23T03:30:29.259Z,97181.34
2022-10-23T03:40:33.214Z,97183.27
2022-10-23T03:50:37.286Z,97189.96
2022-10-23T04:10:47.095Z,97195.77
2022-10-23T04:20:51.760Z,97192.89
2022-10-23T04:30:55.758Z,97190.48
2022-10-23T04:40:59.401Z,97195.93
2022-10-23T04:51:06.203Z,97194.77
2022-10-23T05:01:32.837Z,97197.83
2022-10-23T05:11:37.921Z,97198.80
2022-10-23T05:21:46.704Z,97203.39
2022-10-23T05:31:55.282Z,97204.13
2022-10-23T05:41:59.160Z,97195.73
2022-10-23T05:52:03.030Z,97199.05
2022-10-23T06:02:25.470Z,97197.46
2022-10-23T06:12:33.990Z,97201.10
2022-10-23T06:22:38.787Z,97216.05
2022-10-23T06:32:57.921Z,97221.79
2022-10-23T06:43:03.260Z,97231.61
2022-10-23T06:53:46.197Z,97247.99
2022-10-23T07:04:10.078Z,97249.42
2022-10-23T07:14:14.885Z,97254.25
2022-10-23T07:24:19.780Z,97265.76
2022-10-23T07:34:25.034Z,97269.28
2022-10-23T07:44:44.916Z,97268.67
2022-10-23T07:54:52.796Z,97266.57
2022-10-23T08:04:57.463Z,97277.04
2022-10-23T08:15:06.755Z,97280.91
2022-10-23T08:25:24.856Z,97271.04
2022-10-23T08:35:31.592Z,97262.30
2022-10-23T08:45:44.874Z,97263.02
2022-10-23T08:56:07.327Z,97259.77
2022-10-23T09:06:38.571Z,97258.24
2022-10-23T09:16:55.053Z,97261.05
2022-10-23T09:27:00.996Z,97257.61
2022-10-23T09:37:22.093Z,97258.27
2022-10-23T09:47:26.385Z,97260.27
2022-10-23T09:57:44.632Z,97255.22
2022-10-23T10:08:20.981Z,97242.36
2022-10-23T10:18:37.047Z,97236.02
2022-10-23T10:29:03.115Z,97224.58
2022-10-23T10:39:19.154Z,97216.56
2022-10-23T10:49:41.788Z,97196.80
2022-10-23T11:00:05.897Z,97181.83
2022-10-23T11:10:17.734Z,97176.73
2022-10-23T11:21:02.045Z,97164.95
2022-10-23T11:31:12.949Z,97148.45
2022-10-23T11:41:22.264Z,97142.48
2022-10-23T11:51:35.436Z,97136.84
2022-10-23T12:01:45.890Z,97122.43
2022-10-23T12:12:03.839Z,97111.63
2022-10-23T12:22:11.838Z,97106.70
2022-10-23T12:32:39.639Z,97095.04
2022-10-23T12:42:53.440Z,97077.29
2022-10-23T12:53:03.961Z,97058.67
2022-10-23T13:03:12.515Z,97049.36
2022-10-23T13:13:23.007Z,97051.38
2022-10-23T13:23:34.636Z,97047.15
2022-10-23T13:33:46.564Z,97051.65
2022-10-23T13:43:50.907Z,97045.24
2022-10-23T13:53:56.327Z,97032.39
2022-10-23T14:04:01.343Z,97033.10
2022-10-23T14:14:06.868Z,97037.02
2022-10-23T14:24:11.149Z,97040.78
2022-10-23T14:34:16.449Z,97042.83
2022-10-23T14:44:21.309Z,97045.31
2022-10-23T14:54:27.266Z,97044.51
2022-10-23T15:04:32.016Z,97044.05
2022-10-23T15:14:36.461Z,97049.30
2022-10-23T15:24:40.271Z,97049.59
2022-10-23T15:34:44.914Z,97059.73
2022-10-23T15:44:50.442Z,97059.50
2022-10-23T15:54:58.343Z,97050.88
2022-10-23T16:05:02.929Z,97055.27
2022-10-23T16:15:08.564Z,97056.80
2022-10-23T16:25:12.715Z,97062.58
2022-10-23T16:35:18.037Z,97072.27
2022-10-23T16:45:28.919Z,97082.68
2022-10-23T16:55:34.771Z,97100.48
2022-10-23T17:05:43.849Z,97110.81
2022-10-23T17:15:49.626Z,97126.17
2022-10-23T17:25:55.771Z,97134.45
2022-10-23T17:36:04.259Z,97128.16
2022-10-23T17:46:12.640Z,97130.79
2022-10-23T17:56:23.646Z,97140.23
2022-10-23T18:06:35.524Z,97129.33
2022-10-23T18:16:53.594Z,97113.20
2022-10-23T18:27:02.410Z,97107.58
2022-10-23T18:37:07.920Z,97101.24
2022-10-23T18:47:17.491Z,97108.52
2022-10-23T18:57:22.987Z,97119.14
2022-10-23T19:07:28.006Z,97111.60
2022-10-23T19:17:33.742Z,97084.33
2022-10-23T19:27:40.440Z,97075.82
2022-10-23T19:37:46.179Z,97081.26
2022-10-23T19:47:51.667Z,97085.17
2022-10-23T19:57:55.438Z,97070.59
2022-10-23T20:08:00.624Z,97071.16
2022-10-23T20:18:06.659Z,97068.76
2022-10-23T20:28:14.376Z,97064.71
2022-10-23T20:38:21.034Z,97053.51
2022-10-23T20:48:25.658Z,97065.70
2022-10-23T20:58:30.231Z,97073.09
2022-10-23T21:08:34.102Z,97058.70
2022-10-23T21:18:46.388Z,97059.29
2022-10-23T21:28:56.097Z,97056.68
2022-10-23T21:39:16.921Z,97042.77
2022-10-23T21:49:20.792Z,97034.31
2022-10-23T21:59:30.005Z,97013.23
2022-10-23T22:09:35.698Z,97007.59
2022-10-23T22:19:39.568Z,97004.13
2022-10-23T22:29:43.538Z,97005.65
2022-10-23T22:39:51.304Z,97001.92
2022-10-23T22:49:55.269Z,97008.88
2022-10-23T22:59:59.455Z,96996.02
2022-10-23T23:10:03.744Z,96982.41
2022-10-23T23:20:08.217Z,96967.55
2022-10-23T23:30:12.606Z,96967.45
2022-10-23T23:40:16.523Z,96967.05
2022-10-23T23:50:21.372Z,96946.55
